Forside
METAR-TAF:

METAR-TAF

Lufthavne :

Flying Cloud Airport

Minneapolis / Eden Prairie, Minnesota, USA

Breddekreds: 44-49-56N, længdekreds: 093-28-13W, højde: 287 m

Aktuelle vejr

Denne rapport blev lavet for 50 minutter siden, kl. 07:53 UTC
Vind 3 kt fra sydsydvest
Temperatur 11°C
Fugtighed 58%
Tryk 1009 hPa
Sigt: 16.1 km
skyfri

METAR: KFCM 260753Z AUTO 21003KT 10SM CLR 11/03 A2979 RMK AO2 SLP088 T01110028

Tid: 03:43 (08:43 UTC)


TAF: fraværende

Vejrobservationer og prognoser fra mere end 4000 lufthavne (METAR og TAF).

De gule og røde prikker repræsenterer de meteorologiske stationer.

Flyt musen over at se navnet på stationen.

Så klik over at se vejr observationer og prognoser.

At skifte det kort: Klik på de grønne knapper med et sort kors for at zoome ind; på den grønne knap med en bindestreg for at zoome ud; eller på de grønne pile for tilstødende kort.


METAR-TAF: